PWSweather.com
Personal Weather Stations
Station Observations
WARREN
Narre Warren , MelbourneAU

Narre Warren MelbourneAU

Lat: -38.0314269, Lon: 145.3160851

Elevation: 24

Station Type: Digiteck

http://www.aussiedownunder.net/

High Low Average
Temperature 61.9°F16.6°F 47.3°F8.5°F 54.1°F12.3°F
Dew Point 48.7°F9.3°F 40.8°F4.9°F 45.0°F7.2°F
Winds 8.1 mph -13.0 mph - 0.8 mph 1.3 mph 3.3 mph 5.3 mph
Wind Gusts 24.4 mph39.3 mph 4.5 mph7.2 mph 11.2 mph18.0 mph
Humidity 100% 46% 73%
Pressure 29.52 in999.70 in 29.29 in991.90 in -
Precipitation 1.13 in28.70 in - -
Hour Temp Dew Point Humidity Winds Wind Gusts Pressure Precip Precip Rate Daily Precip Total
12:00 AM 53.8°F12.1°C 48.7°F9.3°C 83% 4.0 mph NW6.4 kmh NW 12.1 mph19.5 kmh 29.47 in998.0 mb 0.00 in0.0 mm 0.00 in0.0 mm 0.00 in0.0 mm
12:15 AM 53.8°F12.1°C 48.7°F9.3°C 83% 5.2 mph SW8.4 kmh SW 12.1 mph19.5 kmh 29.48 in998.3 mb 0.00 in0.0 mm 0.00 in0.0 mm 0.00 in0.0 mm
12:30 AM 53.4°F11.9°C 48.4°F9.1°C 83% 4.4 mph WSW7.1 kmh WSW 11.4 mph18.3 kmh 29.48 in998.3 mb 0.00 in0.0 mm 0.00 in0.0 mm 0.00 in0.0 mm
12:45 AM 53.2°F11.8°C 47.9°F8.8°C 82% 4.1 mph WSW6.6 kmh WSW 9.2 mph14.8 kmh 29.48 in998.3 mb 0.00 in0.0 mm 0.00 in0.0 mm 0.00 in0.0 mm
01:00 AM 53.1°F11.7°C 47.1°F8.4°C 80% 3.1 mph W5.0 kmh W 9.2 mph14.8 kmh 29.49 in998.6 mb 0.00 in0.0 mm 0.00 in0.0 mm 0.00 in0.0 mm
01:15 AM 52.7°F11.5°C 46.4°F8.0°C 79% 2.4 mph W3.9 kmh W 9.8 mph15.8 kmh 29.49 in998.6 mb 0.00 in0.0 mm 0.00 in0.0 mm 0.00 in0.0 mm
01:30 AM 52.5°F11.4°C 46.5°F8.1°C 80% 2.6 mph SW4.2 kmh SW 13.0 mph20.9 kmh 29.49 in998.6 mb 0.00 in0.0 mm 0.00 in0.0 mm 0.00 in0.0 mm
01:45 AM 52.3°F11.3°C 46.4°F8.0°C 80% 2.3 mph W3.7 kmh W 7.6 mph12.2 kmh 29.49 in998.6 mb 0.00 in0.0 mm 0.00 in0.0 mm 0.00 in0.0 mm
02:00 AM 52.3°F11.3°C 46.0°F7.8°C 79% 2.9 mph NW4.7 kmh NW 9.2 mph14.8 kmh 29.49 in998.6 mb 0.00 in0.0 mm 0.00 in0.0 mm 0.00 in0.0 mm
02:15 AM 52.5°F11.4°C 46.2°F7.9°C 79% 3.1 mph N5.0 kmh N 12.1 mph19.5 kmh 29.49 in998.6 mb 0.00 in0.0 mm 0.00 in0.0 mm 0.00 in0.0 mm
02:30 AM 52.3°F11.3°C 45.7°F7.6°C 78% 2.5 mph SW4.0 kmh SW 7.6 mph12.2 kmh 29.49 in998.6 mb 0.00 in0.0 mm 0.00 in0.0 mm 0.00 in0.0 mm
02:45 AM 52.2°F11.2°C 45.5°F7.5°C 78% 1.8 mph W2.9 kmh W 6.0 mph9.7 kmh 29.49 in998.6 mb 0.00 in0.0 mm 0.00 in0.0 mm 0.00 in0.0 mm
03:00 AM 51.6°F10.9°C 45.3°F7.4°C 79% 1.5 mph WNW2.4 kmh WNW 6.9 mph11.1 kmh 29.49 in998.6 mb 0.00 in0.0 mm 0.00 in0.0 mm 0.00 in0.0 mm
03:15 AM 51.6°F10.9°C 45.7°F7.6°C 80% 2.5 mph NNW4.0 kmh NNW 6.9 mph11.1 kmh 29.50 in999.0 mb 0.00 in0.0 mm 0.00 in0.0 mm 0.00 in0.0 mm
03:30 AM 51.4°F10.8°C 45.5°F7.5°C 80% 0.9 mph N1.4 kmh N 4.5 mph7.2 kmh 29.49 in998.6 mb 0.00 in0.0 mm 0.00 in0.0 mm 0.00 in0.0 mm
03:45 AM 50.7°F10.4°C 44.8°F7.1°C 80% 1.6 mph W2.6 kmh W 6.9 mph11.1 kmh 29.49 in998.6 mb 0.00 in0.0 mm 0.00 in0.0 mm 0.00 in0.0 mm
04:00 AM 50.7°F10.4°C 45.1°F7.3°C 81% 2.3 mph W3.7 kmh W 6.9 mph11.1 kmh 29.49 in998.6 mb 0.00 in0.0 mm 0.00 in0.0 mm 0.00 in0.0 mm
04:15 AM 51.3°F10.7°C 45.6°F7.6°C 81% 1.6 mph W2.6 kmh W 6.9 mph11.1 kmh 29.49 in998.6 mb 0.00 in0.0 mm 0.00 in0.0 mm 0.00 in0.0 mm
04:30 AM 51.3°F10.7°C 45.6°F7.6°C 81% 1.6 mph WSW2.6 kmh WSW 4.5 mph7.2 kmh 29.49 in998.6 mb 0.00 in0.0 mm 0.00 in0.0 mm 0.00 in0.0 mm
04:45 AM 51.4°F10.8°C 45.5°F7.5°C 80% 2.3 mph SSW3.7 kmh SSW 9.2 mph14.8 kmh 29.49 in998.6 mb 0.00 in0.0 mm 0.00 in0.0 mm 0.00 in0.0 mm
05:00 AM 51.8°F11.0°C 45.2°F7.3°C 78% 1.9 mph S3.1 kmh S 6.9 mph11.1 kmh 29.49 in998.6 mb 0.00 in0.0 mm 0.00 in0.0 mm 0.00 in0.0 mm
05:15 AM 51.6°F10.9°C 45.0°F7.2°C 78% 1.9 mph WSW3.1 kmh WSW 7.6 mph12.2 kmh 29.49 in998.6 mb 0.00 in0.0 mm 0.00 in0.0 mm 0.00 in0.0 mm
05:30 AM 51.8°F11.0°C 44.8°F7.1°C 77% 1.8 mph SE2.9 kmh SE 8.3 mph13.4 kmh 29.49 in998.6 mb 0.00 in0.0 mm 0.00 in0.0 mm 0.00 in0.0 mm
05:45 AM 51.6°F10.9°C 44.7°F7.1°C 77% 1.4 mph N2.3 kmh N 6.9 mph11.1 kmh 29.49 in998.6 mb 0.00 in0.0 mm 0.00 in0.0 mm 0.00 in0.0 mm
06:00 AM 51.4°F10.8°C 44.5°F6.9°C 77% 1.6 mph NNW2.6 kmh NNW 6.9 mph11.1 kmh 29.50 in999.0 mb 0.00 in0.0 mm 0.00 in0.0 mm 0.00 in0.0 mm
06:15 AM 50.7°F10.4°C 43.8°F6.6°C 77% 0.8 mph NNE1.3 kmh NNE 4.5 mph7.2 kmh 29.50 in999.0 mb 0.00 in0.0 mm 0.00 in0.0 mm 0.00 in0.0 mm
06:30 AM 49.8°F9.9°C 43.9°F6.6°C 80% 1.2 mph SW1.9 kmh SW 6.0 mph9.7 kmh 29.49 in998.6 mb 0.00 in0.0 mm 0.00 in0.0 mm 0.00 in0.0 mm
06:45 AM 49.5°F9.7°C 43.9°F6.6°C 81% 1.7 mph W2.7 kmh W 8.3 mph13.4 kmh 29.50 in999.0 mb 0.00 in0.0 mm 0.00 in0.0 mm 0.00 in0.0 mm
07:00 AM 49.1°F9.5°C 43.5°F6.4°C 81% 0.9 mph NE1.4 kmh NE 6.0 mph9.7 kmh 29.51 in999.3 mb 0.00 in0.0 mm 0.00 in0.0 mm 0.00 in0.0 mm
07:15 AM 48.9°F9.4°C 43.7°F6.5°C 82% 1.4 mph NW2.3 kmh NW 6.0 mph9.7 kmh 29.51 in999.3 mb 0.00 in0.0 mm 0.00 in0.0 mm 0.00 in0.0 mm
07:30 AM 48.7°F9.3°C 43.2°F6.2°C 81% 1.6 mph WNW2.6 kmh WNW 9.2 mph14.8 kmh 29.51 in999.3 mb 0.00 in0.0 mm 0.00 in0.0 mm 0.00 in0.0 mm
07:45 AM 48.9°F9.4°C 43.4°F6.3°C 81% 1.8 mph NNW2.9 kmh NNW 7.6 mph12.2 kmh 29.51 in999.3 mb 0.00 in0.0 mm 0.00 in0.0 mm 0.00 in0.0 mm
08:00 AM 49.3°F9.6°C 43.4°F6.3°C 80% 1.4 mph S2.3 kmh S 6.9 mph11.1 kmh 29.52 in999.7 mb 0.00 in0.0 mm 0.00 in0.0 mm 0.00 in0.0 mm
08:15 AM 49.5°F9.7°C 43.6°F6.4°C 80% 1.4 mph N2.3 kmh N 6.9 mph11.1 kmh 29.51 in999.3 mb 0.00 in0.0 mm 0.00 in0.0 mm 0.00 in0.0 mm
08:30 AM 50.4°F10.2°C 43.4°F6.3°C 77% 1.6 mph NW2.6 kmh NW 5.4 mph8.7 kmh 29.52 in999.7 mb 0.00 in0.0 mm 0.00 in0.0 mm 0.00 in0.0 mm
08:45 AM 52.0°F11.1°C 44.3°F6.8°C 75% 2.1 mph NW3.4 kmh NW 7.6 mph12.2 kmh 29.52 in999.7 mb 0.00 in0.0 mm 0.00 in0.0 mm 0.00 in0.0 mm
09:00 AM 55.0°F12.8°C 45.1°F7.3°C 69% 2.1 mph N3.4 kmh N 8.3 mph13.4 kmh 29.52 in999.7 mb 0.00 in0.0 mm 0.00 in0.0 mm 0.00 in0.0 mm
09:15 AM 55.8°F13.2°C 44.6°F7.0°C 66% 1.7 mph W2.7 kmh W 8.3 mph13.4 kmh 29.52 in999.7 mb 0.00 in0.0 mm 0.00 in0.0 mm 0.00 in0.0 mm
09:30 AM 56.5°F13.6°C 44.5°F6.9°C 64% 3.1 mph NW5.0 kmh NW 9.2 mph14.8 kmh 29.52 in999.7 mb 0.00 in0.0 mm 0.00 in0.0 mm 0.00 in0.0 mm
09:45 AM 57.4°F14.1°C 43.6°F6.4°C 60% 3.1 mph NNW5.0 kmh NNW 9.8 mph15.8 kmh 29.52 in999.7 mb 0.00 in0.0 mm 0.00 in0.0 mm 0.00 in0.0 mm
10:00 AM 57.9°F14.4°C 43.7°F6.5°C 59% 2.6 mph WSW4.2 kmh WSW 9.2 mph14.8 kmh 29.52 in999.7 mb 0.00 in0.0 mm 0.00 in0.0 mm 0.00 in0.0 mm
10:15 AM 58.8°F14.9°C 44.1°F6.7°C 58% 2.6 mph WSW4.2 kmh WSW 9.2 mph14.8 kmh 29.51 in999.3 mb 0.00 in0.0 mm 0.00 in0.0 mm 0.00 in0.0 mm
10:30 AM 59.5°F15.3°C 43.4°F6.3°C 55% 3.2 mph NNW5.1 kmh NNW 13.0 mph20.9 kmh 29.51 in999.3 mb 0.00 in0.0 mm 0.00 in0.0 mm 0.00 in0.0 mm
10:45 AM 59.7°F15.4°C 43.1°F6.2°C 54% 4.3 mph SW6.9 kmh SW 13.0 mph20.9 kmh 29.51 in999.3 mb 0.00 in0.0 mm 0.00 in0.0 mm 0.00 in0.0 mm
11:00 AM 60.1°F15.6°C 43.4°F6.3°C 54% 3.3 mph NW5.3 kmh NW 12.1 mph19.5 kmh 29.50 in999.0 mb 0.00 in0.0 mm 0.00 in0.0 mm 0.00 in0.0 mm
11:15 AM 60.6°F15.9°C 41.9°F5.5°C 50% 3.6 mph NW5.8 kmh NW 15.2 mph24.5 kmh 29.50 in999.0 mb 0.00 in0.0 mm 0.00 in0.0 mm 0.00 in0.0 mm
11:30 AM 61.7°F16.5°C 41.8°F5.4°C 48% 3.6 mph SSW5.8 kmh SSW 11.4 mph18.3 kmh 29.49 in998.6 mb 0.00 in0.0 mm 0.00 in0.0 mm 0.00 in0.0 mm
11:45 AM 61.9°F16.6°C 40.9°F4.9°C 46% 3.9 mph NW6.3 kmh NW 15.2 mph24.5 kmh 29.48 in998.3 mb 0.00 in0.0 mm 0.00 in0.0 mm 0.00 in0.0 mm
12:00 PM 60.6°F15.9°C 40.8°F4.9°C 48% 3.6 mph WNW5.8 kmh WNW 10.7 mph17.2 kmh 29.47 in998.0 mb 0.00 in0.0 mm 0.00 in0.0 mm 0.00 in0.0 mm
12:15 PM 59.0°F15.0°C 40.9°F4.9°C 51% 3.7 mph W6.0 kmh W 12.1 mph19.5 kmh 29.46 in997.6 mb 0.00 in0.0 mm 0.00 in0.0 mm 0.00 in0.0 mm
12:30 PM 58.6°F14.8°C 42.1°F5.6°C 54% 3.6 mph NNW5.8 kmh NNW 11.4 mph18.3 kmh 29.45 in997.3 mb 0.00 in0.0 mm 0.00 in0.0 mm 0.00 in0.0 mm
12:45 PM 59.2°F15.1°C 42.1°F5.6°C 53% 3.4 mph W5.5 kmh W 14.5 mph23.3 kmh 29.45 in997.3 mb 0.00 in0.0 mm 0.00 in0.0 mm 0.00 in0.0 mm
01:00 PM 59.7°F15.4°C 42.6°F5.9°C 53% 3.7 mph WNW6.0 kmh WNW 13.6 mph21.9 kmh 29.44 in997.0 mb 0.00 in0.0 mm 0.00 in0.0 mm 0.00 in0.0 mm
01:15 PM 58.8°F14.9°C 43.2°F6.2°C 56% 3.7 mph NW6.0 kmh NW 15.9 mph25.6 kmh 29.43 in996.6 mb 0.00 in0.0 mm 0.00 in0.0 mm 0.00 in0.0 mm
01:30 PM 58.8°F14.9°C 43.6°F6.4°C 57% 3.0 mph WNW4.8 kmh WNW 9.8 mph15.8 kmh 29.42 in996.3 mb 0.00 in0.0 mm 0.00 in0.0 mm 0.00 in0.0 mm
01:45 PM 59.7°F15.4°C 43.5°F6.4°C 55% 5.0 mph NW8.0 kmh NW 16.8 mph27.0 kmh 29.41 in995.9 mb 0.00 in0.0 mm 0.00 in0.0 mm 0.00 in0.0 mm
02:00 PM 60.1°F15.6°C 43.4°F6.3°C 54% 4.3 mph N6.9 kmh N 14.5 mph23.3 kmh 29.40 in995.6 mb 0.00 in0.0 mm 0.00 in0.0 mm 0.00 in0.0 mm
02:15 PM 59.0°F15.0°C 43.3°F6.3°C 56% 3.7 mph WNW6.0 kmh WNW 12.1 mph19.5 kmh 29.39 in995.3 mb 0.00 in0.0 mm 0.00 in0.0 mm 0.00 in0.0 mm
02:30 PM 59.2°F15.1°C 43.5°F6.4°C 56% 3.8 mph NNW6.1 kmh NNW 12.1 mph19.5 kmh 29.39 in995.3 mb 0.00 in0.0 mm 0.00 in0.0 mm 0.00 in0.0 mm
02:45 PM 57.4°F14.1°C 43.6°F6.4°C 60% 3.8 mph NW6.1 kmh NW 10.7 mph17.2 kmh 29.39 in995.3 mb 0.00 in0.0 mm 0.00 in0.0 mm 0.00 in0.0 mm
03:00 PM 58.5°F14.7°C 44.6°F7.0°C 60% 4.1 mph NE6.6 kmh NE 15.9 mph25.6 kmh 29.37 in994.6 mb 0.00 in0.0 mm 0.00 in0.0 mm 0.00 in0.0 mm
03:15 PM 58.3°F14.6°C 44.5°F6.9°C 60% 2.7 mph WSW4.3 kmh WSW 13.6 mph21.9 kmh 29.37 in994.6 mb 0.00 in0.0 mm 0.00 in0.0 mm 0.00 in0.0 mm
03:30 PM 57.9°F14.4°C 43.2°F6.2°C 58% 3.2 mph W5.1 kmh W 13.0 mph20.9 kmh 29.36 in994.2 mb 0.00 in0.0 mm 0.00 in0.0 mm 0.00 in0.0 mm
03:45 PM 58.1°F14.5°C 43.0°F6.1°C 57% 3.3 mph NE5.3 kmh NE 13.0 mph20.9 kmh 29.36 in994.2 mb 0.00 in0.0 mm 0.00 in0.0 mm 0.00 in0.0 mm
04:00 PM 57.7°F14.3°C 43.5°F6.4°C 59% 3.3 mph NW5.3 kmh NW 9.2 mph14.8 kmh 29.35 in993.9 mb 0.00 in0.0 mm 0.00 in0.0 mm 0.00 in0.0 mm
04:15 PM 57.7°F14.3°C 43.5°F6.4°C 59% 3.5 mph NE5.6 kmh NE 15.9 mph25.6 kmh 29.34 in993.6 mb 0.00 in0.0 mm 0.00 in0.0 mm 0.00 in0.0 mm
04:30 PM 57.6°F14.2°C 44.2°F6.8°C 61% 5.0 mph WNW8.0 kmh WNW 16.8 mph27.0 kmh 29.33 in993.2 mb 0.00 in0.0 mm 0.00 in0.0 mm 0.00 in0.0 mm
04:45 PM 56.7°F13.7°C 44.6°F7.0°C 64% 5.4 mph NW8.7 kmh NW 15.2 mph24.5 kmh 29.33 in993.2 mb 0.00 in0.0 mm 0.00 in0.0 mm 0.00 in0.0 mm
05:00 PM 56.1°F13.4°C 44.5°F6.9°C 65% 4.1 mph NW6.6 kmh NW 15.2 mph24.5 kmh 29.32 in992.9 mb 0.00 in0.0 mm 0.00 in0.0 mm 0.00 in0.0 mm
05:15 PM 55.4°F13.0°C 44.2°F6.8°C 66% 4.7 mph NW7.6 kmh NW 13.0 mph20.9 kmh 29.33 in993.2 mb 0.00 in0.0 mm 0.00 in0.0 mm 0.00 in0.0 mm
05:30 PM 55.6°F13.1°C 44.8°F7.1°C 67% 5.5 mph W8.9 kmh W 14.5 mph23.3 kmh 29.33 in993.2 mb 0.00 in0.0 mm 0.00 in0.0 mm 0.00 in0.0 mm
05:45 PM 55.8°F13.2°C 45.0°F7.2°C 67% 4.6 mph NW7.4 kmh NW 15.2 mph24.5 kmh 29.33 in993.2 mb 0.00 in0.0 mm 0.00 in0.0 mm 0.00 in0.0 mm
06:00 PM 55.9°F13.3°C 45.5°F7.5°C 68% 4.0 mph NNW6.4 kmh NNW 14.5 mph23.3 kmh 29.34 in993.6 mb 0.00 in0.0 mm 0.00 in0.0 mm 0.00 in0.0 mm
06:15 PM 55.8°F13.2°C 45.8°F7.7°C 69% 4.8 mph NW7.7 kmh NW 16.8 mph27.0 kmh 29.34 in993.6 mb 0.00 in0.0 mm 0.00 in0.0 mm 0.00 in0.0 mm
06:30 PM 55.6°F13.1°C 46.0°F7.8°C 70% 5.5 mph NW8.9 kmh NW 15.9 mph25.6 kmh 29.34 in993.6 mb 0.00 in0.0 mm 0.00 in0.0 mm 0.00 in0.0 mm
06:45 PM 55.4°F13.0°C 46.2°F7.9°C 71% 4.6 mph NW7.4 kmh NW 16.8 mph27.0 kmh 29.34 in993.6 mb 0.00 in0.0 mm 0.00 in0.0 mm 0.00 in0.0 mm
07:00 PM 55.4°F13.0°C 46.5°F8.1°C 72% 5.5 mph NNW8.9 kmh NNW 15.2 mph24.5 kmh 29.33 in993.2 mb 0.00 in0.0 mm 0.00 in0.0 mm 0.00 in0.0 mm
07:15 PM 55.4°F13.0°C 46.5°F8.1°C 72% 4.8 mph N7.7 kmh N 15.9 mph25.6 kmh 29.33 in993.2 mb 0.00 in0.0 mm 0.00 in0.0 mm 0.00 in0.0 mm
07:30 PM 55.9°F13.3°C 47.1°F8.4°C 72% 4.9 mph WNW7.9 kmh WNW 16.8 mph27.0 kmh 29.33 in993.2 mb 0.00 in0.0 mm 0.00 in0.0 mm 0.00 in0.0 mm
07:45 PM 55.2°F12.9°C 47.1°F8.4°C 74% 5.3 mph W8.5 kmh W 14.5 mph23.3 kmh 29.32 in992.9 mb 0.00 in0.0 mm 0.00 in0.0 mm 0.00 in0.0 mm
08:00 PM 54.7°F12.6°C 47.6°F8.7°C 77% 4.0 mph W6.4 kmh W 11.4 mph18.3 kmh 29.31 in992.6 mb 0.00 in0.0 mm 0.00 in0.0 mm 0.00 in0.0 mm
08:15 PM 55.2°F12.9°C 47.4°F8.6°C 75% 4.5 mph NW7.2 kmh NW 14.5 mph23.3 kmh 29.30 in992.2 mb 0.00 in0.0 mm 0.00 in0.0 mm 0.00 in0.0 mm
08:30 PM 55.2°F12.9°C 47.8°F8.8°C 76% 4.7 mph NW7.6 kmh NW 15.2 mph24.5 kmh 29.30 in992.2 mb 0.00 in0.0 mm 0.00 in0.0 mm 0.00 in0.0 mm
08:45 PM 54.5°F12.5°C 48.5°F9.2°C 80% 5.4 mph NNW8.7 kmh NNW 17.4 mph28.0 kmh 29.29 in991.9 mb 0.00 in0.0 mm 0.00 in0.0 mm 0.00 in0.0 mm
09:00 PM 53.8°F12.1°C 48.4°F9.1°C 82% 4.4 mph NW7.1 kmh NW 14.5 mph23.3 kmh 29.33 in993.2 mb 0.00 in0.0 mm 0.00 in0.0 mm 0.00 in0.0 mm
09:15 PM 49.6°F9.8°C 45.9°F7.7°C 87% 8.1 mph WSW13.0 kmh WSW 24.4 mph39.3 kmh 29.34 in993.6 mb 0.14 in3.6 mm 0.56 in14.2 mm 0.14 in3.6 mm
09:30 PM 49.3°F9.6°C 47.6°F8.7°C 94% 5.9 mph WSW9.5 kmh WSW 15.2 mph24.5 kmh 29.35 in993.9 mb 0.19 in4.8 mm 0.20 in5.1 mm 0.19 in4.8 mm
09:45 PM 48.9°F9.4°C 47.8°F8.8°C 96% 7.5 mph W12.1 kmh W 16.8 mph27.0 kmh 29.34 in993.6 mb 0.21 in5.3 mm 0.08 in2.0 mm 0.21 in5.3 mm
10:00 PM 48.6°F9.2°C 47.8°F8.8°C 97% 5.9 mph SW9.5 kmh SW 13.0 mph20.9 kmh 29.34 in993.6 mb 0.25 in6.4 mm 0.05 in1.3 mm 0.25 in6.4 mm
10:15 PM 48.2°F9.0°C 47.4°F8.6°C 97% 5.0 mph W8.0 kmh W 15.9 mph25.6 kmh 29.33 in993.2 mb 0.12 in3.0 mm 0.00 in0.0 mm 0.26 in6.6 mm
10:30 PM 47.7°F8.7°C 47.7°F8.7°C 100% 2.8 mph WNW4.5 kmh WNW 7.6 mph12.2 kmh 29.32 in992.9 mb 0.08 in2.0 mm 0.00 in0.0 mm 0.27 in6.9 mm
10:45 PM 47.5°F8.6°C 47.5°F8.6°C 100% 2.2 mph NW3.5 kmh NW 13.0 mph20.9 kmh 29.30 in992.2 mb 0.06 in1.5 mm 0.00 in0.0 mm 0.27 in6.9 mm
11:00 PM 47.3°F8.5°C 47.3°F8.5°C 100% 2.2 mph WSW3.5 kmh WSW 8.3 mph13.4 kmh 29.30 in992.2 mb 0.04 in1.0 mm 0.00 in0.0 mm 0.28 in7.1 mm
11:15 PM 47.3°F8.5°C 47.3°F8.5°C 100% 1.7 mph W2.7 kmh W 6.0 mph9.7 kmh 29.29 in991.9 mb 0.02 in0.5 mm 0.00 in0.0 mm 0.28 in7.1 mm
11:30 PM 47.3°F8.5°C 47.0°F8.3°C 99% 0.9 mph WNW1.4 kmh WNW 6.9 mph11.1 kmh 29.29 in991.9 mb 0.01 in0.3 mm 0.00 in0.0 mm 0.28 in7.1 mm
11:45 PM 47.5°F8.6°C 47.2°F8.4°C 99% 1.5 mph NW2.4 kmh NW 6.9 mph11.1 kmh 29.29 in991.9 mb 0.01 in0.3 mm 0.00 in0.0 mm 0.28 in7.1 mm